Ikan Jebuh — 3EWQ7 — position and weather

sailwx.info

Track history (hours):
 
Tides and Currents Weather Stations Pressure Air Temp Water Temp Dewpoint Dewpoint Depression Visibility Wind Speed Wind Dir Waves Ship Positions

Ikan Jebuh

Last reported at 2018-Apr-16 21:14 UTC. Time now 2018-Jun-25 05:43 UTC.
Position N 22°22' E 119°41'.
Warning: this ship's position is months out of date.

Length 177 m; draft 8.9 m.

Type: Cargo ship. MMSI: 354953000.

Date/timePositionNaut miles runAvg speedWind from/ knotsBaromVisibWave heightAir tempDewpointWater temp
2018-Apr-16 21:14N 22°22' E 119°41'313.6
2018-Apr-16 21:00N 22°24' E 119°43'913.3
2018-Apr-16 20:18N 22°31' E 119°51'412.7
2018-Apr-16 20:00N 22°34' E 119°52'713.6
2018-Apr-16 19:30N 22°41' E 119°52'1013.5
2018-Apr-16 18:45N 22°51' E 119°51'2813.4
2018-Apr-16 16:38N 23°19' E 119°53'212.8
2018-Apr-16 16:30N 23°21' E 119°53'612.4
2018-Apr-16 16:01N 23°27' E 119°53'611.5
2018-Apr-16 15:30N 23°33' E 119°53'510.6
2018-Apr-16 15:00N 23°38' E 119°53'  
2018-Apr-13 07:24N 33°16' E 131°59'4 9.4
2018-Apr-13 07:00N 33°20' E 131°59'612.1
2018-Apr-13 06:29N 33°26' E 132°02'2113.4
2018-Apr-13 04:56N 33°41' E 132°20'814.3
2018-Apr-13 04:23N 33°46' E 132°27'1014.7
2018-Apr-13 03:42N 33°53' E 132°36'414.7
2018-Apr-13 03:25N 33°56' E 132°39'614.4
2018-Apr-13 03:00N 34°00' E 132°44'  
Track history (hours):
 
Tides and Currents Weather Stations Pressure Air Temp Water Temp Dewpoint Dewpoint Depression Visibility Wind Speed Wind Dir Waves Ship Positions

Ikan Jebuh

Last reported at 2018-Apr-16 21:14 UTC. Time now 2018-Jun-25 05:43 UTC.
Position N 22°22' E 119°41'.
Warning: this ship's position is months out of date.

Length 177 m; draft 8.9 m.

Type: Cargo ship. MMSI: 354953000.

Date/timePositionNaut miles runAvg speedWind from/ knotsBaromVisibWave heightAir tempDewpointWater temp
2018-Apr-16 21:14N 22°22' E 119°41'313.6
2018-Apr-16 21:00N 22°24' E 119°43'913.3
2018-Apr-16 20:18N 22°31' E 119°51'412.7
2018-Apr-16 20:00N 22°34' E 119°52'713.6
2018-Apr-16 19:30N 22°41' E 119°52'1013.5
2018-Apr-16 18:45N 22°51' E 119°51'2813.4
2018-Apr-16 16:38N 23°19' E 119°53'212.8
2018-Apr-16 16:30N 23°21' E 119°53'612.4
2018-Apr-16 16:01N 23°27' E 119°53'611.5
2018-Apr-16 15:30N 23°33' E 119°53'510.6
2018-Apr-16 15:00N 23°38' E 119°53'  
2018-Apr-13 07:24N 33°16' E 131°59'4 9.4
2018-Apr-13 07:00N 33°20' E 131°59'612.1
2018-Apr-13 06:29N 33°26' E 132°02'2113.4
2018-Apr-13 04:56N 33°41' E 132°20'814.3
2018-Apr-13 04:23N 33°46' E 132°27'1014.7
2018-Apr-13 03:42N 33°53' E 132°36'414.7
2018-Apr-13 03:25N 33°56' E 132°39'614.4
2018-Apr-13 03:00N 34°00' E 132°44'  

Dump ship's entire track history